createdAt,value
2019-03-25T00:01:13.209Z,100827.73
2019-03-25T00:03:43.748Z,100819.73
2019-03-25T00:06:14.052Z,100825.55
2019-03-25T00:08:45.726Z,100812.62
2019-03-25T00:11:15.005Z,100809.50
2019-03-25T00:13:44.288Z,100803.23
2019-03-25T00:16:13.547Z,100801.31
2019-03-25T00:18:42.830Z,100803.63
2019-03-25T00:21:12.113Z,100807.46
2019-03-25T00:23:41.338Z,100800.61
2019-03-25T00:26:10.594Z,100799.08
2019-03-25T00:28:39.808Z,100796.26
2019-03-25T00:31:09.071Z,100793.23
2019-03-25T00:33:38.228Z,100780.47
2019-03-25T00:36:07.590Z,100779.89
2019-03-25T00:38:36.747Z,100769.39
2019-03-25T00:41:05.950Z,100768.92
2019-03-25T00:43:35.173Z,100760.05
2019-03-25T00:46:04.408Z,100756.45
2019-03-25T00:48:33.614Z,100753.31
2019-03-25T00:51:02.805Z,100741.17
2019-03-25T00:53:32.048Z,100739.55
2019-03-25T00:56:01.258Z,100735.84
2019-03-25T00:58:30.487Z,100729.16
2019-03-25T01:00:59.685Z,100727.20
2019-03-25T01:03:29.212Z,100717.48
2019-03-25T01:05:58.453Z,100707.47
2019-03-25T01:08:27.658Z,100714.37
2019-03-25T01:10:56.852Z,100701.33
2019-03-25T01:13:26.169Z,100683.90
2019-03-25T01:15:55.381Z,100688.33
2019-03-25T01:18:24.584Z,100680.58
2019-03-25T01:20:53.809Z,100680.17
2019-03-25T01:23:23.011Z,100673.03
2019-03-25T01:25:52.231Z,100670.06
2019-03-25T01:28:21.476Z,100668.23
2019-03-25T01:30:50.749Z,100668.52
2019-03-25T01:33:20.299Z,100663.43
2019-03-25T01:35:49.536Z,100648.84
2019-03-25T01:38:18.762Z,100648.02
2019-03-25T01:40:48.265Z,100638.74
2019-03-25T01:43:17.469Z,100625.75
2019-03-25T01:45:46.713Z,100630.03
2019-03-25T01:48:15.909Z,100614.50
2019-03-25T01:50:45.117Z,100617.98
2019-03-25T01:53:14.340Z,100610.58
2019-03-25T01:55:43.572Z,100605.53
2019-03-25T01:58:12.771Z,100596.37
2019-03-25T02:00:42.268Z,100597.70
2019-03-25T02:03:11.498Z,100579.42
2019-03-25T02:05:40.692Z,100572.34
2019-03-25T02:08:09.901Z,100567.13
2019-03-25T02:10:39.759Z,100565.61
2019-03-25T02:13:09.660Z,100558.45
2019-03-25T02:15:38.862Z,100553.55
2019-03-25T02:18:08.322Z,100545.31
2019-03-25T02:20:37.554Z,100537.41
2019-03-25T02:23:10.663Z,100518.27
2019-03-25T02:25:39.275Z,100514.44
2019-03-25T02:28:08.537Z,100517.36
2019-03-25T02:30:37.759Z,100502.83
2019-03-25T02:33:06.957Z,100500.54
2019-03-25T02:35:38.496Z,100509.09
2019-03-25T02:38:07.757Z,100521.02
2019-03-25T02:40:37.015Z,100513.59
2019-03-25T02:43:06.295Z,100498.78
2019-03-25T02:45:35.514Z,100493.77
2019-03-25T02:48:05.122Z,100497.67
2019-03-25T02:50:35.549Z,100493.82
2019-03-25T02:53:05.220Z,100479.90
2019-03-25T02:55:42.020Z,100479.23
2019-03-25T02:58:06.695Z,100483.47
2019-03-25T03:00:37.891Z,100476.52
2019-03-25T03:03:08.134Z,100467.24
2019-03-25T03:05:38.398Z,100469.61
2019-03-25T03:08:07.785Z,100453.42
2019-03-25T03:10:37.239Z,100450.23
2019-03-25T03:13:06.802Z,100445.89
2019-03-25T03:15:36.016Z,100434.45
2019-03-25T03:18:05.712Z,100439.69
2019-03-25T03:20:34.913Z,100438.73
2019-03-25T03:23:04.151Z,100426.27
2019-03-25T03:25:33.381Z,100423.38
2019-03-25T03:28:02.696Z,100412.70
2019-03-25T03:30:32.203Z,100416.23
2019-03-25T03:33:01.441Z,100398.97
2019-03-25T03:35:30.646Z,100403.41
2019-03-25T03:37:59.854Z,100399.58
2019-03-25T03:40:29.069Z,100403.73
2019-03-25T03:42:58.285Z,100401.28
2019-03-25T03:45:27.511Z,100402.47
2019-03-25T03:47:56.996Z,100408.00
2019-03-25T03:50:28.624Z,100405.72
2019-03-25T03:52:58.837Z,100402.34
2019-03-25T03:55:30.029Z,100400.32
2019-03-25T03:58:00.000Z,100406.05
2019-03-25T04:00:31.724Z,100414.53
2019-03-25T04:03:01.914Z,100420.23
2019-03-25T04:05:31.394Z,100421.97
2019-03-25T04:08:01.128Z,100409.66
2019-03-25T04:10:30.733Z,100417.52
2019-03-25T04:13:00.367Z,100429.51
2019-03-25T04:15:33.961Z,100416.55
2019-03-25T04:18:03.189Z,100410.20
2019-03-25T04:20:32.962Z,100423.03
2019-03-25T04:23:02.310Z,100419.13
2019-03-25T04:25:31.545Z,100410.45
2019-03-25T04:28:00.759Z,100419.34
2019-03-25T04:30:29.977Z,100413.09
2019-03-25T04:32:59.216Z,100424.94
2019-03-25T04:35:28.770Z,100424.75
2019-03-25T04:37:57.990Z,100428.42
2019-03-25T04:40:27.222Z,100427.91
2019-03-25T04:42:56.469Z,100431.52
2019-03-25T04:45:25.978Z,100430.16
2019-03-25T04:47:55.203Z,100439.45
2019-03-25T04:50:24.421Z,100433.25
2019-03-25T04:52:53.655Z,100454.41
2019-03-25T04:55:24.970Z,100440.77
2019-03-25T04:57:54.205Z,100441.67
2019-03-25T05:00:39.251Z,100445.17
2019-03-25T05:03:08.477Z,100448.14
2019-03-25T05:05:38.284Z,100439.38
2019-03-25T05:08:07.520Z,100448.33
2019-03-25T05:10:36.813Z,100459.91
2019-03-25T05:13:06.796Z,100459.86
2019-03-25T05:15:36.354Z,100452.58
2019-03-25T05:18:05.877Z,100455.64
2019-03-25T05:20:35.152Z,100464.99
2019-03-25T05:23:05.017Z,100458.64
2019-03-25T05:25:35.005Z,100461.60
2019-03-25T05:28:05.031Z,100462.11
2019-03-25T05:30:34.646Z,100463.43
2019-03-25T05:33:04.517Z,100456.02
2019-03-25T05:35:34.033Z,100462.59
2019-03-25T05:38:03.658Z,100460.95
2019-03-25T05:40:32.869Z,100459.67
2019-03-25T05:43:02.072Z,100465.73
2019-03-25T05:45:31.293Z,100469.87
2019-03-25T05:48:00.500Z,100472.31
2019-03-25T05:50:30.056Z,100466.06
2019-03-25T05:52:59.385Z,100464.56
2019-03-25T05:55:29.264Z,100467.23
2019-03-25T05:57:58.778Z,100457.66
2019-03-25T06:00:31.587Z,100456.84
2019-03-25T06:03:01.198Z,100464.05
2019-03-25T06:05:30.413Z,100458.88
2019-03-25T06:07:59.621Z,100456.62
2019-03-25T06:10:28.852Z,100457.01
2019-03-25T06:12:58.080Z,100464.53
2019-03-25T06:15:27.305Z,100461.33
2019-03-25T06:17:57.515Z,100464.86
2019-03-25T06:20:28.248Z,100461.90
2019-03-25T06:22:57.923Z,100468.00
2019-03-25T06:25:27.757Z,100463.16
2019-03-25T06:27:58.633Z,100455.78
2019-03-25T06:30:28.516Z,100454.27
2019-03-25T06:32:58.401Z,100446.19
2019-03-25T06:35:27.608Z,100455.11
2019-03-25T06:37:56.855Z,100452.94
2019-03-25T06:40:26.789Z,100452.19
2019-03-25T06:42:57.024Z,100451.60
2019-03-25T06:45:26.877Z,100440.23
2019-03-25T06:47:56.375Z,100444.98
2019-03-25T06:50:26.498Z,100438.83
2019-03-25T06:52:56.778Z,100437.99
2019-03-25T06:55:26.351Z,100441.32
2019-03-25T06:57:55.538Z,100436.92
2019-03-25T07:00:24.909Z,100437.63
2019-03-25T07:02:54.132Z,100437.63
2019-03-25T07:05:23.343Z,100445.48
2019-03-25T07:07:52.930Z,100445.92
2019-03-25T07:10:35.609Z,100448.53
2019-03-25T07:13:08.980Z,100454.59
2019-03-25T07:15:38.199Z,100447.75
2019-03-25T07:18:08.448Z,100455.16
2019-03-25T07:20:39.725Z,100451.03
2019-03-25T07:23:09.208Z,100449.38
2019-03-25T07:25:41.089Z,100455.33
2019-03-25T07:28:12.667Z,100449.23
2019-03-25T07:30:43.649Z,100451.29
2019-03-25T07:33:12.849Z,100448.39
2019-03-25T07:35:42.076Z,100448.23
2019-03-25T07:38:11.329Z,100444.28
2019-03-25T07:40:40.524Z,100442.61
2019-03-25T07:43:09.757Z,100435.31
2019-03-25T07:45:39.272Z,100445.97
2019-03-25T07:48:08.467Z,100433.77
2019-03-25T07:50:37.704Z,100431.87
2019-03-25T07:53:06.991Z,100439.23
2019-03-25T07:55:36.192Z,100446.59
2019-03-25T07:58:05.541Z,100434.59
2019-03-25T08:00:34.724Z,100435.65
2019-03-25T08:03:04.039Z,100449.14
2019-03-25T08:05:33.297Z,100438.30
2019-03-25T08:08:02.464Z,100444.03
2019-03-25T08:10:34.400Z,100436.55
2019-03-25T08:13:04.891Z,100431.59
2019-03-25T08:15:34.715Z,100420.55
2019-03-25T08:18:04.240Z,100420.23
2019-03-25T08:20:33.436Z,100414.59
2019-03-25T08:23:02.640Z,100414.07
2019-03-25T08:25:31.954Z,100413.63
2019-03-25T08:28:01.329Z,100405.47
2019-03-25T08:30:30.849Z,100404.23
2019-03-25T08:33:00.072Z,100407.61
2019-03-25T08:35:29.275Z,100412.22
2019-03-25T08:37:58.587Z,100402.86
2019-03-25T08:40:28.227Z,100419.13
2019-03-25T08:42:57.415Z,100412.53
2019-03-25T08:45:26.846Z,100411.70
2019-03-25T08:47:56.414Z,100411.57
2019-03-25T08:50:25.629Z,100421.00
2019-03-25T08:52:54.815Z,100421.19
2019-03-25T08:55:26.123Z,100411.00
2019-03-25T08:57:55.334Z,100420.33
2019-03-25T09:00:24.611Z,100421.86
2019-03-25T09:02:53.835Z,100410.02
2019-03-25T09:05:23.025Z,100421.77
2019-03-25T09:07:52.214Z,100422.94
2019-03-25T09:10:21.586Z,100421.34
2019-03-25T09:12:50.791Z,100428.51
2019-03-25T09:15:20.374Z,100427.45
2019-03-25T09:17:50.189Z,100418.70
2019-03-25T09:20:19.462Z,100426.17
2019-03-25T09:22:49.314Z,100434.27
2019-03-25T09:25:18.758Z,100423.30
2019-03-25T09:27:47.954Z,100423.17
2019-03-25T09:30:49.403Z,100424.34
2019-03-25T09:33:18.603Z,100423.01
2019-03-25T09:35:48.021Z,100451.19
2019-03-25T09:38:17.409Z,100439.09
2019-03-25T09:40:46.607Z,100435.00
2019-03-25T09:43:15.821Z,100430.92
2019-03-25T09:45:45.152Z,100437.06
2019-03-25T09:48:14.664Z,100437.64
2019-03-25T09:50:44.276Z,100429.34
2019-03-25T09:53:13.493Z,100424.23
2019-03-25T09:55:42.721Z,100434.89
2019-03-25T09:58:36.321Z,100426.46
2019-03-25T10:01:01.871Z,100431.18
2019-03-25T10:03:31.101Z,100430.66
2019-03-25T10:06:00.961Z,100419.44
2019-03-25T10:08:30.234Z,100436.41
2019-03-25T10:10:59.524Z,100443.86
2019-03-25T10:13:28.754Z,100446.84
2019-03-25T10:15:57.971Z,100474.13
2019-03-25T10:18:27.177Z,100461.00
2019-03-25T10:20:56.399Z,100452.64
2019-03-25T10:23:25.665Z,100454.68
2019-03-25T10:25:54.934Z,100463.00
2019-03-25T10:28:24.249Z,100470.27
2019-03-25T10:30:53.823Z,100468.82
2019-03-25T10:33:23.030Z,100483.01
2019-03-25T10:35:52.355Z,100493.84
2019-03-25T10:38:21.949Z,100490.02
2019-03-25T10:40:51.158Z,100496.83
2019-03-25T10:43:20.370Z,100515.22
2019-03-25T10:45:49.653Z,100494.08
2019-03-25T10:48:18.848Z,100504.55
2019-03-25T10:50:48.072Z,100497.33
2019-03-25T10:53:17.273Z,100507.16
2019-03-25T10:55:46.820Z,100506.03
2019-03-25T10:58:16.017Z,100503.22
2019-03-25T11:00:45.312Z,100520.45
2019-03-25T11:03:14.600Z,100526.44
2019-03-25T11:05:43.802Z,100544.64
2019-03-25T11:08:13.019Z,100534.42
2019-03-25T11:10:42.295Z,100535.20
2019-03-25T11:13:13.452Z,100538.73
2019-03-25T11:15:42.661Z,100538.50
2019-03-25T11:18:11.881Z,100533.08
2019-03-25T11:20:41.124Z,100534.14
2019-03-25T11:23:10.328Z,100521.60
2019-03-25T11:25:39.534Z,100510.36
2019-03-25T11:28:08.754Z,100519.70
2019-03-25T11:30:55.109Z,100524.01
2019-03-25T11:33:24.494Z,100514.05
2019-03-25T11:35:54.083Z,100518.44
2019-03-25T11:38:23.461Z,100526.77
2019-03-25T11:40:53.228Z,100520.88
2019-03-25T11:43:22.597Z,100522.78
2019-03-25T11:45:52.350Z,100524.84
2019-03-25T11:48:21.750Z,100511.70
2019-03-25T11:50:51.021Z,100519.50
2019-03-25T11:53:20.249Z,100526.62
2019-03-25T11:55:49.563Z,100527.90
2019-03-25T11:58:19.117Z,100540.42
2019-03-25T12:00:48.315Z,100546.77
2019-03-25T12:03:17.550Z,100556.74
2019-03-25T12:05:46.750Z,100574.05
2019-03-25T12:08:16.050Z,100560.22
2019-03-25T12:10:45.253Z,100567.83
2019-03-25T12:13:14.453Z,100566.28
2019-03-25T12:15:43.743Z,100558.36
2019-03-25T12:18:13.311Z,100555.70
2019-03-25T12:20:42.818Z,100562.77
2019-03-25T12:23:12.039Z,100562.80
2019-03-25T12:25:41.234Z,100568.05
2019-03-25T12:28:10.433Z,100571.41
2019-03-25T12:30:39.657Z,100567.33
2019-03-25T12:33:08.933Z,100581.70
2019-03-25T12:35:38.154Z,100576.49
2019-03-25T12:38:07.360Z,100568.81
2019-03-25T12:40:36.647Z,100573.69
2019-03-25T12:43:05.891Z,100575.34
2019-03-25T12:45:35.165Z,100566.74
2019-03-25T12:48:04.453Z,100568.88
2019-03-25T12:50:34.572Z,100569.83
2019-03-25T12:53:03.887Z,100581.82
2019-03-25T12:55:33.138Z,100566.66
2019-03-25T12:58:02.366Z,100573.26
2019-03-25T13:00:42.841Z,100585.22
2019-03-25T13:03:14.449Z,100626.94
2019-03-25T13:05:43.844Z,100614.11
2019-03-25T13:08:13.535Z,100630.70
2019-03-25T13:10:42.752Z,100620.37
2019-03-25T13:13:11.956Z,100626.50
2019-03-25T13:15:41.513Z,100627.84
2019-03-25T13:18:10.820Z,100625.42
2019-03-25T13:20:40.136Z,100631.73
2019-03-25T13:23:09.331Z,100626.55
2019-03-25T13:25:40.094Z,100639.98
2019-03-25T13:28:09.318Z,100654.26
2019-03-25T13:30:38.522Z,100664.08
2019-03-25T13:33:08.111Z,100660.18
2019-03-25T13:35:37.645Z,100669.45
2019-03-25T13:38:06.886Z,100662.59
2019-03-25T13:40:36.130Z,100662.59
2019-03-25T13:43:05.336Z,100663.77
2019-03-25T13:45:36.203Z,100657.91
2019-03-25T13:48:05.505Z,100661.37
2019-03-25T13:50:34.706Z,100654.53
2019-03-25T13:53:03.990Z,100652.44
2019-03-25T13:55:33.588Z,100653.87
2019-03-25T13:58:02.787Z,100648.38
2019-03-25T14:00:40.608Z,100648.88
2019-03-25T14:03:09.858Z,100650.79
2019-03-25T14:05:39.453Z,100659.94
2019-03-25T14:08:09.028Z,100669.52
2019-03-25T14:10:38.608Z,100661.70
2019-03-25T14:13:07.972Z,100664.80
2019-03-25T14:15:37.280Z,100669.02
2019-03-25T14:18:06.955Z,100681.23
2019-03-25T14:20:36.218Z,100679.80
2019-03-25T14:23:06.165Z,100684.03
2019-03-25T14:25:35.384Z,100679.98
2019-03-25T14:28:04.757Z,100682.82
2019-03-25T14:30:33.976Z,100674.14
2019-03-25T14:33:03.564Z,100678.72
2019-03-25T14:35:32.795Z,100720.29
2019-03-25T14:38:02.891Z,100723.93
2019-03-25T14:40:33.734Z,100723.11
2019-03-25T14:43:03.019Z,100710.04
2019-03-25T14:45:32.236Z,100710.47
2019-03-25T14:48:01.435Z,100717.46
2019-03-25T14:50:31.558Z,100719.09
2019-03-25T14:53:01.626Z,100721.54
2019-03-25T14:55:30.844Z,100739.41
2019-03-25T14:58:03.485Z,100740.47
2019-03-25T15:00:32.729Z,100739.28
2019-03-25T15:03:01.926Z,100741.19
2019-03-25T15:05:31.148Z,100763.75
2019-03-25T15:08:00.380Z,100757.78
2019-03-25T15:10:29.625Z,100767.02
2019-03-25T15:13:01.229Z,100779.17
2019-03-25T15:15:30.508Z,100775.52
2019-03-25T15:17:59.730Z,100776.97
2019-03-25T15:20:28.963Z,100779.05
2019-03-25T15:22:58.499Z,100779.27
2019-03-25T15:25:27.798Z,100774.48
2019-03-25T15:27:57.080Z,100775.93
2019-03-25T15:30:35.467Z,100779.48
2019-03-25T15:32:57.231Z,100787.46
2019-03-25T15:35:26.623Z,100794.98
2019-03-25T15:37:55.796Z,100801.84
2019-03-25T15:40:25.138Z,100803.45
2019-03-25T15:42:54.702Z,100814.17
2019-03-25T15:45:23.987Z,100804.52
2019-03-25T15:47:53.220Z,100804.60
2019-03-25T15:50:22.572Z,100817.13
2019-03-25T15:52:51.842Z,100808.30
2019-03-25T15:55:21.387Z,100811.02
2019-03-25T15:57:50.691Z,100826.20
2019-03-25T16:00:20.733Z,100837.27
2019-03-25T16:02:49.940Z,100834.19
2019-03-25T16:05:19.169Z,100855.73
2019-03-25T16:07:48.486Z,100854.66
2019-03-25T16:10:18.329Z,100855.91
2019-03-25T16:12:48.040Z,100865.06
2019-03-25T16:15:37.634Z,100863.37
2019-03-25T16:18:07.070Z,100867.95
2019-03-25T16:20:36.460Z,100870.16
2019-03-25T16:23:05.753Z,100876.30
2019-03-25T16:25:34.950Z,100883.91
2019-03-25T16:28:04.185Z,100891.02
2019-03-25T16:30:33.383Z,100905.98
2019-03-25T16:33:02.579Z,100906.60
2019-03-25T16:35:31.797Z,100903.10
2019-03-25T16:38:01.281Z,100902.59
2019-03-25T16:40:30.504Z,100908.34
2019-03-25T16:42:59.702Z,100908.97
2019-03-25T16:45:28.891Z,100907.83
2019-03-25T16:47:58.399Z,100907.54
2019-03-25T16:50:27.597Z,100917.88
2019-03-25T16:52:56.834Z,100927.76
2019-03-25T16:55:26.135Z,100922.39
2019-03-25T16:57:55.335Z,100918.67
2019-03-25T17:00:27.584Z,100931.86
2019-03-25T17:02:55.549Z,100939.98
2019-03-25T17:05:24.741Z,100938.95
2019-03-25T17:07:54.474Z,100947.82
2019-03-25T17:10:24.063Z,100957.27
2019-03-25T17:12:53.291Z,100955.13
2019-03-25T17:15:22.487Z,100969.72
2019-03-25T17:17:51.691Z,100977.18
2019-03-25T17:20:20.901Z,100986.67
2019-03-25T17:22:50.157Z,100993.46
2019-03-25T17:25:19.731Z,100998.03
2019-03-25T17:27:48.929Z,100999.77
2019-03-25T17:30:18.870Z,101002.45
2019-03-25T17:32:48.064Z,101011.73
2019-03-25T17:35:17.275Z,101013.39
2019-03-25T17:37:46.501Z,101018.60
2019-03-25T17:40:16.001Z,101023.16
2019-03-25T17:42:45.201Z,101019.89
2019-03-25T17:45:16.340Z,101030.23
2019-03-25T17:47:45.520Z,101034.38
2019-03-25T17:50:14.992Z,101035.95
2019-03-25T17:52:44.189Z,101046.45
2019-03-25T17:55:13.569Z,101049.34
2019-03-25T17:57:51.056Z,101051.66
2019-03-25T18:00:43.947Z,101054.84
2019-03-25T18:03:15.277Z,101057.08
2019-03-25T18:05:44.075Z,101063.50
2019-03-25T18:08:13.299Z,101066.98
2019-03-25T18:10:42.510Z,101075.50
2019-03-25T18:13:21.934Z,101077.77
2019-03-25T18:15:42.662Z,101090.11
2019-03-25T18:18:11.851Z,101080.27
2019-03-25T18:20:41.097Z,101092.01
2019-03-25T18:23:10.308Z,101103.34
2019-03-25T18:25:39.532Z,101101.84
2019-03-25T18:28:08.744Z,101106.65
2019-03-25T18:30:38.299Z,101110.47
2019-03-25T18:33:07.704Z,101114.09
2019-03-25T18:35:36.902Z,101123.52
2019-03-25T18:38:06.133Z,101129.17
2019-03-25T18:40:35.324Z,101134.16
2019-03-25T18:43:04.594Z,101147.36
2019-03-25T18:45:33.813Z,101163.17
2019-03-25T18:48:03.004Z,101165.22
2019-03-25T18:50:32.199Z,101169.15
2019-03-25T18:53:01.503Z,101168.09
2019-03-25T18:55:30.699Z,101173.65
2019-03-25T18:57:59.930Z,101166.65
2019-03-25T19:00:33.418Z,101167.91
2019-03-25T19:03:03.000Z,101173.48
2019-03-25T19:05:32.208Z,101177.23
2019-03-25T19:08:03.864Z,101180.20
2019-03-25T19:10:33.866Z,101183.47
2019-03-25T19:13:03.153Z,101181.34
2019-03-25T19:15:32.441Z,101196.72
2019-03-25T19:18:01.621Z,101189.30
2019-03-25T19:20:30.845Z,101187.72
2019-03-25T19:23:00.075Z,101193.22
2019-03-25T19:25:29.291Z,101198.30
2019-03-25T19:27:58.550Z,101206.34
2019-03-25T19:30:27.786Z,101212.10
2019-03-25T19:32:57.225Z,101217.75
2019-03-25T19:35:26.773Z,101218.08
2019-03-25T19:37:56.255Z,101221.25
2019-03-25T19:40:25.439Z,101233.50
2019-03-25T19:42:54.680Z,101238.06
2019-03-25T19:45:23.921Z,101243.98
2019-03-25T19:47:53.114Z,101241.38
2019-03-25T19:50:22.401Z,101255.90
2019-03-25T19:52:51.617Z,101265.78
2019-03-25T19:55:20.808Z,101265.37
2019-03-25T19:57:50.085Z,101276.81
2019-03-25T20:00:26.129Z,101275.77
2019-03-25T20:02:55.381Z,101282.48
2019-03-25T20:05:24.629Z,101292.63
2019-03-25T20:07:53.902Z,101306.63
2019-03-25T20:10:30.838Z,101291.47
2019-03-25T20:13:00.269Z,101302.52
2019-03-25T20:15:32.601Z,101306.48
2019-03-25T20:18:01.052Z,101313.08
2019-03-25T20:20:30.275Z,101318.86
2019-03-25T20:22:59.478Z,101325.46
2019-03-25T20:25:28.671Z,101327.92
2019-03-25T20:27:58.226Z,101320.53
2019-03-25T20:30:27.540Z,101326.67
2019-03-25T20:32:56.836Z,101335.13
2019-03-25T20:35:26.073Z,101340.27
2019-03-25T20:37:55.230Z,101338.63
2019-03-25T20:40:24.439Z,101344.90
2019-03-25T20:42:53.635Z,101351.20
2019-03-25T20:45:22.834Z,101356.66
2019-03-25T20:47:52.103Z,101359.11
2019-03-25T20:50:21.290Z,101364.84
2019-03-25T20:52:50.456Z,101368.66
2019-03-25T20:55:19.826Z,101378.73
2019-03-25T20:57:49.007Z,101374.42
2019-03-25T21:00:24.452Z,101371.63
2019-03-25T21:02:53.723Z,101379.92
2019-03-25T21:05:22.941Z,101381.27
2019-03-25T21:07:52.147Z,101383.06
2019-03-25T21:10:21.355Z,101383.88
2019-03-25T21:12:50.545Z,101379.23
2019-03-25T21:15:19.785Z,101387.37
2019-03-25T21:17:48.998Z,101381.98
2019-03-25T21:20:18.179Z,101393.71
2019-03-25T21:22:47.391Z,101404.59
2019-03-25T21:25:16.631Z,101405.96
2019-03-25T21:27:45.831Z,101407.12
2019-03-25T21:30:15.416Z,101417.16
2019-03-25T21:32:57.307Z,101414.02
2019-03-25T21:35:15.633Z,101420.49
2019-03-25T21:37:44.948Z,101431.05
2019-03-25T21:40:14.409Z,101430.72
2019-03-25T21:42:43.601Z,101434.69
2019-03-25T21:45:12.952Z,101439.16
2019-03-25T21:47:42.223Z,101440.95
2019-03-25T21:50:11.835Z,101437.31
2019-03-25T21:52:41.034Z,101444.23
2019-03-25T21:55:10.473Z,101441.28
2019-03-25T21:57:39.668Z,101452.01
2019-03-25T22:00:09.352Z,101452.33
2019-03-25T22:02:38.567Z,101457.47
2019-03-25T22:05:07.899Z,101460.28
2019-03-25T22:07:37.101Z,101457.62
2019-03-25T22:10:07.125Z,101465.36
2019-03-25T22:12:36.366Z,101464.52
2019-03-25T22:15:09.028Z,101469.02
2019-03-25T22:17:38.596Z,101471.14
2019-03-25T22:20:09.136Z,101468.20
2019-03-25T22:22:38.361Z,101477.09
2019-03-25T22:25:08.640Z,101468.20
2019-03-25T22:27:38.018Z,101469.99
2019-03-25T22:30:08.177Z,101467.52
2019-03-25T22:32:37.399Z,101475.27
2019-03-25T22:35:07.010Z,101480.72
2019-03-25T22:37:36.239Z,101482.20
2019-03-25T22:40:06.397Z,101489.14
2019-03-25T22:42:36.223Z,101497.36
2019-03-25T22:45:06.341Z,101498.85
2019-03-25T22:47:35.834Z,101506.77
2019-03-25T22:50:07.045Z,101511.23
2019-03-25T22:52:36.327Z,101516.18
2019-03-25T22:55:06.975Z,101519.50
2019-03-25T22:57:36.280Z,101518.48
2019-03-25T23:00:07.176Z,101519.33
2019-03-25T23:02:36.376Z,101520.14
2019-03-25T23:05:06.127Z,101523.59
2019-03-25T23:07:35.359Z,101524.10
2019-03-25T23:10:05.177Z,101527.25
2019-03-25T23:12:34.402Z,101527.89
2019-03-25T23:15:03.705Z,101529.55
2019-03-25T23:17:32.903Z,101530.05
2019-03-25T23:20:02.125Z,101531.68
2019-03-25T23:22:31.354Z,101525.76
2019-03-25T23:25:00.582Z,101529.55
2019-03-25T23:27:29.819Z,101527.25
2019-03-25T23:29:59.024Z,101529.89
2019-03-25T23:32:28.223Z,101529.38
2019-03-25T23:34:57.456Z,101528.56
2019-03-25T23:37:26.660Z,101536.15
2019-03-25T23:39:55.872Z,101538.14
2019-03-25T23:42:25.106Z,101533.84
2019-03-25T23:44:54.313Z,101536.95
2019-03-25T23:47:23.504Z,101528.87
2019-03-25T23:49:52.728Z,101531.38
2019-03-25T23:52:22.039Z,101529.89
2019-03-25T23:54:51.244Z,101525.42
2019-03-25T23:57:20.482Z,101535.00
2019-03-25T23:59:49.996Z,101533.51
